Phoenix, Arizona
Traffic Map
Current Weather Conditions
Phoenix, Arizona
Scattered Clouds
Scattered Clouds
27°
Feels Like: 27°
Wind Chill: 27° Ceiling: Unl
Heat Index: 27° Visibility: 10mi
Dew Point: Wind: 0mph
Humidity: 31% Direction: ° ()
Pressure: 29.8in Gusts: 0mph
Raw Report DataKPHX 010451Z 00000KT 10SM SCT210 27/08 A2980 RMK AO2 SLP073 T02670083
Traffic Incident Summary
Active as of:
Severity:
Category:
InformationThere was an issue retrieving the traffic information for this location. Please try a different location or try again shortly.
Advertisements
Track Severe Weather on mobile